This is the latest recevied weather packets stored in our database for station/object F5SAW-10. If no packets are shown the sender has not sent any weather packets the latest 10 day(s).
| Time | Temp. | Humidity | Pressure | Rain* | Wind** | Luminosity | Snow |
|---|---|---|---|---|---|---|---|
| 1778308285 | 25° C | 40% | 976.1 hPa | - | - | - | - |
| 1778307385 | 23.89° C | 44% | 976.2 hPa | - | - | - | - |
| 1778306484 | 18.33° C | 54% | 976.2 hPa | - | - | - | - |
| 1778265995 | 26.11° C | 37% | 976.7 hPa | - | - | - | - |
| 1778265095 | 26.11° C | 37% | 976.7 hPa | - | - | - | - |
| 1778264195 | 26.67° C | 37% | 976.6 hPa | - | - | - | - |
| 1778263294 | 26.11° C | 37% | 976.6 hPa | - | - | - | - |
| 1778262394 | 26.11° C | 37% | 976.5 hPa | - | - | - | - |
| 1778261494 | 26.67° C | 37% | 976.3 hPa | - | - | - | - |
| 1778260593 | 26.67° C | 37% | 976.3 hPa | - | - | - | - |
| 1778259693 | 26.67° C | 37% | 976.4 hPa | - | - | - | - |
| 1778258792 | 26.67° C | 37% | 976.2 hPa | - | - | - | - |
| 1778257892 | 26.67° C | 36% | 976.2 hPa | - | - | - | - |
| 1778256991 | 26.11° C | 37% | 976.1 hPa | - | - | - | - |
| 1778256091 | 26.11° C | 36% | 976 hPa | - | - | - | - |
| 1778255190 | 26.11° C | 37% | 976.4 hPa | - | - | - | - |
| 1778254290 | 26.67° C | 36% | 976 hPa | - | - | - | - |
| 1778253389 | 26.67° C | 36% | 975.5 hPa | - | - | - | - |
| 1778252489 | 26.67° C | 36% | 975.7 hPa | - | - | - | - |
| 1778251588 | 26.67° C | 35% | 975.6 hPa | - | - | - | - |
| 1778250688 | 26.67° C | 35% | 975.7 hPa | - | - | - | - |
| 1778249788 | 26.67° C | 35% | 975.9 hPa | - | - | - | - |
| 1778248888 | 26.67° C | 36% | 975.9 hPa | - | - | - | - |
| 1778247987 | 26.11° C | 36% | 976 hPa | - | - | - | - |
| 1778247087 | 26.11° C | 36% | 976 hPa | - | - | - | - |
* Rain since midnight (hover to see other rain measurements)
** Current wind speed in m/s (hover to see current wind gust speed)